createdAt,value
2022-11-24T00:00:52.222Z,8.23
2022-11-24T00:03:18.980Z,8.16
2022-11-24T00:05:45.730Z,8.18
2022-11-24T00:08:12.294Z,8.18
2022-11-24T00:10:38.659Z,8.19
2022-11-24T00:13:05.013Z,8.26
2022-11-24T00:15:31.355Z,8.28
2022-11-24T00:17:57.789Z,8.17
2022-11-24T00:20:24.140Z,8.20
2022-11-24T00:22:50.535Z,8.20
2022-11-24T00:25:16.979Z,8.26
2022-11-24T00:27:43.342Z,8.33
2022-11-24T00:30:10.047Z,8.37
2022-11-24T00:32:36.420Z,8.36
2022-11-24T00:35:02.828Z,8.38
2022-11-24T00:37:29.232Z,8.35
2022-11-24T00:39:55.568Z,8.32
2022-11-24T00:42:21.936Z,8.34
2022-11-24T00:44:48.329Z,8.21
2022-11-24T00:47:14.831Z,8.20
2022-11-24T00:49:41.238Z,8.21
2022-11-24T00:52:07.594Z,8.29
2022-11-24T00:54:34.314Z,8.34
2022-11-24T00:57:01.047Z,8.32
2022-11-24T00:59:27.448Z,8.32
2022-11-24T01:01:53.855Z,8.31
2022-11-24T01:04:20.345Z,8.35
2022-11-24T01:06:46.715Z,8.30
2022-11-24T01:09:13.108Z,8.30
2022-11-24T01:11:57.853Z,8.30
2022-11-24T01:14:25.374Z,8.21
2022-11-24T01:16:52.615Z,8.20
2022-11-24T01:19:19.795Z,8.19
2022-11-24T01:21:47.123Z,8.15
2022-11-24T01:24:14.022Z,8.09
2022-11-24T01:26:40.411Z,8.03
2022-11-24T01:29:06.749Z,8.04
2022-11-24T01:31:33.100Z,8.05
2022-11-24T01:33:59.505Z,8.13
2022-11-24T01:36:25.874Z,8.14
2022-11-24T01:38:52.256Z,8.18
2022-11-24T01:41:21.815Z,8.19
2022-11-24T01:43:49.516Z,8.18
2022-11-24T01:46:24.144Z,8.14
2022-11-24T01:49:08.657Z,8.08
2022-11-24T01:51:40.005Z,7.99
2022-11-24T01:54:15.943Z,7.98
2022-11-24T01:56:47.568Z,8.03
2022-11-24T01:59:17.130Z,8.04
2022-11-24T02:01:43.905Z,7.93
2022-11-24T02:04:14.953Z,7.85
2022-11-24T02:06:43.673Z,7.89
2022-11-24T02:09:13.625Z,7.97
2022-11-24T02:11:41.447Z,7.97
2022-11-24T02:14:11.731Z,7.95
2022-11-24T02:16:40.862Z,7.87
2022-11-24T02:19:18.060Z,7.96
2022-11-24T02:21:44.400Z,7.93
2022-11-24T02:24:40.439Z,7.93
2022-11-24T02:27:07.237Z,7.94
2022-11-24T02:29:33.793Z,8.01
2022-11-24T02:32:04.671Z,8.05
2022-11-24T02:34:31.295Z,8.03
2022-11-24T02:36:57.834Z,8.07
2022-11-24T02:39:24.268Z,7.95
2022-11-24T02:41:57.969Z,8.06
2022-11-24T02:44:30.415Z,8.06
2022-11-24T02:47:05.968Z,8.06
2022-11-24T02:49:32.368Z,8.07
2022-11-24T02:51:59.106Z,8.11
2022-11-24T02:54:25.508Z,8.09
2022-11-24T02:56:52.364Z,8.13
2022-11-24T02:59:19.222Z,8.12
2022-11-24T03:01:45.762Z,8.13
2022-11-24T03:04:12.715Z,8.13
2022-11-24T03:06:39.239Z,8.12
2022-11-24T03:09:05.886Z,8.14
2022-11-24T03:11:32.673Z,8.05
2022-11-24T03:13:59.024Z,8.06
2022-11-24T03:16:25.483Z,8.05
2022-11-24T03:18:53.034Z,8.00
2022-11-24T03:21:19.575Z,8.07
2022-11-24T03:23:45.965Z,8.08
2022-11-24T03:26:15.675Z,8.15
2022-11-24T03:28:42.155Z,8.20
2022-11-24T03:31:09.289Z,8.24
2022-11-24T03:33:36.310Z,8.23
2022-11-24T03:36:04.254Z,8.23
2022-11-24T03:38:30.635Z,8.23
2022-11-24T03:40:57.020Z,8.25
2022-11-24T03:43:23.371Z,8.25
2022-11-24T03:45:50.137Z,8.24
2022-11-24T03:48:17.681Z,8.22
2022-11-24T03:50:52.049Z,8.17
2022-11-24T03:53:18.411Z,8.20
2022-11-24T03:55:44.786Z,8.14
2022-11-24T03:58:11.233Z,8.16
2022-11-24T04:00:37.622Z,8.11
2022-11-24T04:03:04.048Z,8.10
2022-11-24T04:05:30.439Z,8.12
2022-11-24T04:07:57.560Z,8.06
2022-11-24T04:10:24.889Z,8.09
2022-11-24T04:12:51.243Z,8.14
2022-11-24T04:15:19.302Z,8.08
2022-11-24T04:17:47.084Z,8.09
2022-11-24T04:20:14.892Z,8.03
2022-11-24T04:22:42.050Z,7.99
2022-11-24T04:25:10.088Z,8.02
2022-11-24T04:27:37.194Z,8.00
2022-11-24T04:30:05.685Z,7.97
2022-11-24T04:32:32.136Z,8.02
2022-11-24T04:34:58.510Z,8.04
2022-11-24T04:37:24.893Z,8.07
2022-11-24T04:39:51.274Z,8.06
2022-11-24T04:42:17.656Z,8.05
2022-11-24T04:44:44.022Z,8.06
2022-11-24T04:47:15.885Z,8.07
2022-11-24T04:49:42.335Z,8.05
2022-11-24T04:52:08.698Z,8.08
2022-11-24T04:54:35.271Z,8.12
2022-11-24T04:57:01.891Z,8.16
2022-11-24T04:59:28.803Z,8.17
2022-11-24T05:01:55.327Z,8.16
2022-11-24T05:04:22.357Z,8.22
2022-11-24T05:06:48.806Z,8.27
2022-11-24T05:09:17.070Z,8.22
2022-11-24T05:11:43.761Z,8.20
2022-11-24T05:14:10.111Z,8.18
2022-11-24T05:16:37.710Z,8.16
2022-11-24T05:19:04.293Z,8.10
2022-11-24T05:21:30.660Z,8.08
2022-11-24T05:23:57.139Z,8.11
2022-11-24T05:26:23.573Z,8.10
2022-11-24T05:28:50.002Z,8.12
2022-11-24T05:31:16.369Z,8.13
2022-11-24T05:33:43.217Z,8.10
2022-11-24T05:36:29.911Z,8.05
2022-11-24T05:38:56.338Z,8.05
2022-11-24T05:41:22.819Z,8.06
2022-11-24T05:43:49.181Z,8.04
2022-11-24T05:46:15.722Z,7.87
2022-11-24T05:48:42.203Z,7.87
2022-11-24T05:51:09.547Z,7.90
2022-11-24T05:53:36.313Z,7.87
2022-11-24T05:56:04.000Z,7.80
2022-11-24T05:58:30.462Z,7.83
2022-11-24T06:00:56.878Z,7.84
2022-11-24T06:03:23.736Z,7.90
2022-11-24T06:05:50.160Z,7.91
2022-11-24T06:08:16.554Z,7.96
2022-11-24T06:10:42.904Z,7.97
2022-11-24T06:13:09.345Z,7.93
2022-11-24T06:15:37.631Z,7.95
2022-11-24T06:18:04.094Z,7.93
2022-11-24T06:20:32.809Z,7.87
2022-11-24T06:23:00.687Z,7.90
2022-11-24T06:25:28.494Z,7.92
2022-11-24T06:27:55.106Z,7.89
2022-11-24T06:30:21.499Z,7.88
2022-11-24T06:32:49.933Z,7.88
2022-11-24T06:35:17.308Z,7.88
2022-11-24T06:37:43.864Z,7.89
2022-11-24T06:40:10.450Z,7.84
2022-11-24T06:42:37.589Z,7.78
2022-11-24T06:45:08.717Z,7.77
2022-11-24T06:47:35.884Z,7.81
2022-11-24T06:50:02.707Z,7.83
2022-11-24T06:52:29.113Z,7.84
2022-11-24T06:54:55.492Z,7.84
2022-11-24T06:57:21.932Z,7.84
2022-11-24T06:59:48.365Z,7.88
2022-11-24T07:02:14.908Z,7.81
2022-11-24T07:04:41.265Z,7.81
2022-11-24T07:07:07.654Z,7.79
2022-11-24T07:09:34.112Z,7.80
2022-11-24T07:12:02.147Z,7.77
2022-11-24T07:14:28.513Z,7.78
2022-11-24T07:16:54.995Z,7.80
2022-11-24T07:19:24.832Z,7.84
2022-11-24T07:21:51.722Z,7.79
2022-11-24T07:24:18.068Z,7.72
2022-11-24T07:26:44.536Z,7.74
2022-11-24T07:29:10.902Z,7.77
2022-11-24T07:31:37.425Z,7.76
2022-11-24T07:34:03.870Z,7.80
2022-11-24T07:36:30.339Z,7.77
2022-11-24T07:38:56.872Z,7.75
2022-11-24T07:41:23.457Z,7.75
2022-11-24T07:43:51.424Z,7.72
2022-11-24T07:46:19.413Z,7.73
2022-11-24T07:48:46.276Z,7.71
2022-11-24T07:51:12.896Z,7.74
2022-11-24T07:53:39.545Z,7.72
2022-11-24T07:56:06.693Z,7.76
2022-11-24T07:58:35.935Z,7.80
2022-11-24T08:01:16.372Z,7.80
2022-11-24T08:03:43.689Z,7.84
2022-11-24T08:06:31.790Z,7.81
2022-11-24T08:08:57.976Z,7.83
2022-11-24T08:11:25.210Z,7.82
2022-11-24T08:13:51.632Z,7.79
2022-11-24T08:16:19.805Z,7.85
2022-11-24T08:18:51.196Z,7.89
2022-11-24T08:21:17.842Z,7.87
2022-11-24T08:23:44.432Z,7.94
2022-11-24T08:26:15.908Z,7.93
2022-11-24T08:28:42.821Z,7.97
2022-11-24T08:31:18.671Z,8.01
2022-11-24T08:33:46.026Z,8.03
2022-11-24T08:36:15.173Z,8.00
2022-11-24T08:38:41.875Z,8.05
2022-11-24T08:41:14.967Z,8.11
2022-11-24T08:43:41.627Z,8.12
2022-11-24T08:46:11.173Z,8.16
2022-11-24T08:48:37.963Z,8.19
2022-11-24T08:51:13.471Z,8.25
2022-11-24T08:53:40.394Z,8.21
2022-11-24T08:56:08.379Z,8.15
2022-11-24T08:58:35.143Z,8.17
2022-11-24T09:01:19.698Z,8.21
2022-11-24T09:03:50.741Z,8.23
2022-11-24T09:06:23.724Z,8.34
2022-11-24T09:08:51.737Z,8.45
2022-11-24T09:11:18.388Z,8.50
2022-11-24T09:13:45.150Z,8.58
2022-11-24T09:16:14.414Z,8.58
2022-11-24T09:18:41.252Z,8.52
2022-11-24T09:21:08.945Z,8.54
2022-11-24T09:23:36.228Z,8.61
2022-11-24T09:26:14.370Z,8.70
2022-11-24T09:28:41.609Z,8.77
2022-11-24T09:31:11.459Z,8.80
2022-11-24T09:33:38.607Z,8.87
2022-11-24T09:36:06.091Z,8.91
2022-11-24T09:38:33.130Z,8.93
2022-11-24T09:41:14.794Z,8.98
2022-11-24T09:43:59.898Z,9.02
2022-11-24T09:46:54.163Z,9.05
2022-11-24T09:49:51.517Z,9.06
2022-11-24T09:52:43.948Z,9.05
2022-11-24T09:55:33.089Z,9.03
2022-11-24T09:58:21.000Z,9.01
2022-11-24T10:00:51.731Z,9.03
2022-11-24T10:03:43.443Z,9.10
2022-11-24T10:06:39.603Z,9.19
2022-11-24T10:09:42.874Z,9.31
2022-11-24T10:12:43.427Z,9.44
2022-11-24T10:15:45.434Z,9.50
2022-11-24T10:18:33.082Z,9.50
2022-11-24T10:20:59.368Z,9.45
2022-11-24T10:23:41.209Z,9.47
2022-11-24T10:26:31.977Z,9.44
2022-11-24T10:28:58.421Z,9.51
2022-11-24T10:31:42.457Z,9.53
2022-11-24T10:34:18.025Z,9.54
2022-11-24T10:37:06.143Z,9.51
2022-11-24T10:39:46.603Z,9.53
2022-11-24T10:42:18.582Z,9.45
2022-11-24T10:44:45.261Z,9.51
2022-11-24T10:47:22.752Z,9.55
2022-11-24T10:50:03.551Z,9.68
2022-11-24T10:52:36.677Z,9.75
2022-11-24T10:55:05.074Z,9.79
2022-11-24T10:57:32.967Z,9.81
2022-11-24T11:00:00.851Z,9.81
2022-11-24T11:02:39.234Z,9.78
2022-11-24T11:05:35.078Z,9.77
2022-11-24T11:08:17.490Z,9.81
2022-11-24T11:10:45.381Z,9.86
2022-11-24T11:13:27.549Z,9.94
2022-11-24T11:15:55.554Z,9.90
2022-11-24T11:18:25.857Z,9.85
2022-11-24T11:20:55.367Z,9.80
2022-11-24T11:23:31.246Z,9.93
2022-11-24T11:26:17.361Z,9.86
2022-11-24T11:35:12.629Z,9.89
2022-11-24T11:37:39.052Z,10.00
2022-11-24T11:40:15.948Z,10.10
2022-11-24T11:43:05.226Z,10.14
2022-11-24T11:45:35.787Z,10.21
2022-11-24T11:48:02.758Z,10.20
2022-11-24T11:51:15.048Z,10.12
2022-11-24T11:54:07.434Z,10.18
2022-11-24T11:56:40.275Z,10.09
2022-11-24T11:59:18.427Z,10.08
2022-11-24T12:02:16.084Z,10.08
2022-11-24T12:04:47.064Z,10.14
2022-11-24T12:07:47.143Z,10.16
2022-11-24T12:10:57.903Z,10.25
2022-11-24T12:13:33.069Z,10.31
2022-11-24T12:16:15.747Z,10.30
2022-11-24T12:18:57.761Z,10.36
2022-11-24T12:21:35.682Z,10.39
2022-11-24T12:24:17.971Z,10.38
2022-11-24T12:26:57.574Z,10.45
2022-11-24T12:29:53.371Z,10.48
2022-11-24T12:33:07.645Z,10.47
2022-11-24T12:35:46.515Z,10.49
2022-11-24T12:38:38.018Z,10.51
2022-11-24T12:41:40.981Z,10.61
2022-11-24T12:44:30.597Z,10.69
2022-11-24T12:47:10.011Z,10.64
2022-11-24T12:50:02.705Z,10.67
2022-11-24T12:52:35.629Z,10.68
2022-11-24T12:55:02.755Z,10.66
2022-11-24T12:57:44.700Z,10.68
2022-11-24T13:00:27.056Z,10.71
2022-11-24T13:03:11.681Z,10.71
2022-11-24T13:06:01.234Z,10.72
2022-11-24T13:08:29.643Z,10.72
2022-11-24T13:11:25.980Z,10.66
2022-11-24T13:14:28.654Z,10.64
2022-11-24T13:19:46.877Z,10.49
2022-11-24T13:22:24.182Z,10.52
2022-11-24T13:25:21.666Z,10.57
2022-11-24T13:27:52.965Z,10.52
2022-11-24T13:30:45.463Z,10.55
2022-11-24T13:33:16.568Z,10.46
2022-11-24T13:36:02.230Z,10.49
2022-11-24T13:38:43.716Z,10.44
2022-11-24T13:41:31.268Z,10.39
2022-11-24T13:44:16.075Z,10.42
2022-11-24T13:47:07.025Z,10.39
2022-11-24T13:49:46.372Z,10.35
2022-11-24T13:52:40.377Z,10.34
2022-11-24T13:55:12.756Z,10.28
2022-11-24T13:57:48.000Z,10.32
2022-11-24T14:00:35.154Z,10.28
2022-11-24T14:03:05.356Z,10.25
2022-11-24T14:05:45.935Z,10.26
2022-11-24T14:08:21.770Z,10.32
2022-11-24T14:10:48.553Z,10.33
2022-11-24T14:13:29.673Z,10.18
2022-11-24T14:16:00.543Z,10.21
2022-11-24T14:18:29.056Z,10.24
2022-11-24T14:20:56.745Z,10.27
2022-11-24T14:23:23.328Z,10.18
2022-11-24T14:25:51.280Z,10.18
2022-11-24T14:28:29.163Z,10.19
2022-11-24T14:31:09.557Z,10.19
2022-11-24T14:33:36.673Z,10.20
2022-11-24T14:36:03.311Z,10.19
2022-11-24T14:38:29.692Z,10.21
2022-11-24T14:40:56.416Z,10.16
2022-11-24T14:43:25.515Z,10.15
2022-11-24T14:46:08.966Z,10.11
2022-11-24T14:48:38.592Z,10.09
2022-11-24T14:51:19.778Z,10.07
2022-11-24T14:53:50.524Z,10.12
2022-11-24T14:56:27.480Z,10.08
2022-11-24T14:58:55.571Z,10.08
2022-11-24T15:01:27.868Z,10.06
2022-11-24T15:04:18.178Z,10.03
2022-11-24T15:07:18.943Z,10.06
2022-11-24T15:09:52.830Z,10.04
2022-11-24T15:12:28.430Z,9.92
2022-11-24T15:14:58.575Z,9.95
2022-11-24T15:17:28.271Z,9.93
2022-11-24T15:20:02.751Z,9.93
2022-11-24T15:22:29.108Z,9.90
2022-11-24T15:24:55.510Z,9.91
2022-11-24T15:27:22.111Z,9.80
2022-11-24T15:29:48.491Z,9.83
2022-11-24T15:32:15.563Z,9.83
2022-11-24T15:34:44.013Z,9.85
2022-11-24T15:37:10.444Z,9.82
2022-11-24T15:39:36.859Z,9.78
2022-11-24T15:42:03.416Z,9.76
2022-11-24T15:44:30.084Z,9.66
2022-11-24T15:46:56.538Z,9.60
2022-11-24T15:49:23.084Z,9.63
2022-11-24T15:51:49.435Z,9.60
2022-11-24T15:54:17.837Z,9.59
2022-11-24T15:56:44.572Z,9.56
2022-11-24T15:59:20.581Z,9.56
2022-11-24T16:01:49.583Z,9.49
2022-11-24T16:04:16.317Z,9.54
2022-11-24T16:06:42.766Z,9.54
2022-11-24T16:09:14.355Z,9.61
2022-11-24T16:11:40.941Z,9.59
2022-11-24T16:14:07.411Z,9.58
2022-11-24T16:16:33.888Z,9.61
2022-11-24T16:19:00.400Z,9.49
2022-11-24T16:21:26.780Z,9.45
2022-11-24T16:23:53.751Z,9.49
2022-11-24T16:26:20.260Z,9.53
2022-11-24T16:28:46.660Z,9.51
2022-11-24T16:31:15.689Z,9.51
2022-11-24T16:33:44.481Z,9.55
2022-11-24T16:36:10.993Z,9.47
2022-11-24T16:38:37.374Z,9.37
2022-11-24T16:41:03.897Z,9.39
2022-11-24T16:43:30.462Z,9.46
2022-11-24T16:46:16.025Z,9.47
2022-11-24T16:48:42.955Z,9.47
2022-11-24T16:51:10.384Z,9.49
2022-11-24T16:53:37.170Z,9.47
2022-11-24T16:56:04.244Z,9.32
2022-11-24T16:58:30.674Z,9.40
2022-11-24T17:01:12.375Z,9.38
2022-11-24T17:03:39.093Z,9.41
2022-11-24T17:06:11.317Z,9.42
2022-11-24T17:08:39.548Z,9.39
2022-11-24T17:11:11.934Z,9.37
2022-11-24T17:13:39.141Z,9.39
2022-11-24T17:16:11.552Z,9.40
2022-11-24T17:18:38.873Z,9.33
2022-11-24T17:21:09.733Z,9.35
2022-11-24T17:23:36.966Z,9.35
2022-11-24T17:26:14.722Z,9.32
2022-11-24T17:28:42.145Z,9.35
2022-11-24T17:31:24.107Z,9.34
2022-11-24T17:33:52.887Z,9.27
2022-11-24T17:36:19.604Z,9.28
2022-11-24T17:38:46.068Z,9.26
2022-11-24T17:41:12.423Z,9.27
2022-11-24T17:43:38.776Z,9.30
2022-11-24T17:46:05.350Z,9.33
2022-11-24T17:48:32.362Z,9.30
2022-11-24T17:51:03.406Z,9.25
2022-11-24T17:53:30.492Z,9.19
2022-11-24T17:56:00.520Z,9.21
2022-11-24T17:58:28.278Z,9.21
2022-11-24T18:00:54.931Z,9.27
2022-11-24T18:03:21.426Z,9.35
2022-11-24T18:05:47.943Z,9.37
2022-11-24T18:08:14.509Z,9.40
2022-11-24T18:10:40.894Z,9.30
2022-11-24T18:13:07.300Z,9.36
2022-11-24T18:15:34.864Z,9.36
2022-11-24T18:18:02.007Z,9.34
2022-11-24T18:20:28.988Z,9.25
2022-11-24T18:23:05.381Z,9.19
2022-11-24T18:25:33.162Z,9.29
2022-11-24T18:27:59.584Z,9.36
2022-11-24T18:30:25.928Z,9.31
2022-11-24T18:32:52.339Z,9.24
2022-11-24T18:35:18.767Z,9.22
2022-11-24T18:37:45.244Z,9.27
2022-11-24T18:40:11.891Z,9.25
2022-11-24T18:42:38.342Z,9.22
2022-11-24T18:45:05.696Z,9.25
2022-11-24T18:47:33.401Z,9.28
2022-11-24T18:50:00.241Z,9.30
2022-11-24T18:52:26.721Z,9.24
2022-11-24T18:54:53.139Z,9.18
2022-11-24T18:57:19.549Z,9.17
2022-11-24T18:59:45.931Z,9.18
2022-11-24T19:02:12.431Z,9.18
2022-11-24T19:04:40.232Z,9.20
2022-11-24T19:07:06.683Z,9.19
2022-11-24T19:09:33.090Z,9.10
2022-11-24T19:12:00.066Z,9.02
2022-11-24T19:14:26.585Z,9.01
2022-11-24T19:16:53.040Z,9.03
2022-11-24T19:19:19.527Z,8.96
2022-11-24T19:21:46.108Z,8.88
2022-11-24T19:24:15.383Z,8.95
2022-11-24T19:26:41.915Z,9.00
2022-11-24T19:29:08.672Z,9.01
2022-11-24T19:31:36.036Z,9.06
2022-11-24T19:34:03.404Z,9.07
2022-11-24T19:36:30.493Z,8.99
2022-11-24T19:38:57.975Z,8.98
2022-11-24T19:41:27.092Z,8.94
2022-11-24T19:43:54.594Z,8.88
2022-11-24T19:46:22.639Z,8.72
2022-11-24T19:48:53.916Z,8.70
2022-11-24T19:51:22.993Z,8.77
2022-11-24T19:53:49.713Z,8.71
2022-11-24T19:56:21.396Z,8.81
2022-11-24T19:58:48.497Z,8.82
2022-11-24T20:01:24.469Z,8.86
2022-11-24T20:03:58.746Z,8.69
2022-11-24T20:06:27.004Z,8.75
2022-11-24T20:08:53.445Z,8.73
2022-11-24T20:11:21.203Z,8.82
2022-11-24T20:13:49.653Z,8.78
2022-11-24T20:16:18.652Z,8.77
2022-11-24T20:18:47.546Z,8.78
2022-11-24T20:21:17.935Z,8.79
2022-11-24T20:23:46.088Z,8.78
2022-11-24T20:26:15.220Z,8.70
2022-11-24T20:28:42.461Z,8.76
2022-11-24T20:31:12.350Z,8.81
2022-11-24T20:33:39.304Z,8.75
2022-11-24T20:36:11.607Z,8.72
2022-11-24T20:38:39.418Z,8.69
2022-11-24T20:41:09.606Z,8.79
2022-11-24T20:43:37.768Z,8.77
2022-11-24T20:46:09.308Z,8.87
2022-11-24T20:48:36.887Z,8.90
2022-11-24T20:51:11.611Z,8.85
2022-11-24T20:53:38.955Z,8.74
2022-11-24T20:56:27.239Z,8.73
2022-11-24T20:58:53.702Z,8.75
2022-11-24T21:01:25.295Z,8.73
2022-11-24T21:03:54.443Z,8.72
2022-11-24T21:06:21.597Z,8.64
2022-11-24T21:08:47.984Z,8.73
2022-11-24T21:11:15.294Z,8.75
2022-11-24T21:13:44.220Z,8.77
2022-11-24T21:16:15.224Z,8.78
2022-11-24T21:18:42.848Z,8.80
2022-11-24T21:21:09.290Z,8.86
2022-11-24T21:23:35.660Z,8.88
2022-11-24T21:26:05.708Z,8.98
2022-11-24T21:28:33.584Z,8.93
2022-11-24T21:31:08.730Z,8.94
2022-11-24T21:33:44.669Z,8.94
2022-11-24T21:36:12.502Z,8.90
2022-11-24T21:38:38.893Z,8.94
2022-11-24T21:41:07.279Z,8.90
2022-11-24T21:43:34.408Z,8.99
2022-11-24T21:46:08.926Z,8.98
2022-11-24T21:48:36.977Z,8.98
2022-11-24T21:51:05.921Z,9.04
2022-11-24T21:53:36.968Z,9.00
2022-11-24T21:56:12.545Z,8.94
2022-11-24T21:58:44.859Z,8.98
2022-11-24T22:01:11.580Z,9.02
2022-11-24T22:03:38.132Z,9.01
2022-11-24T22:06:04.744Z,8.96
2022-11-24T22:08:31.654Z,8.98
2022-11-24T22:11:06.024Z,8.97
2022-11-24T22:13:33.120Z,8.98
2022-11-24T22:16:20.819Z,8.94
2022-11-24T22:18:47.805Z,8.89
2022-11-24T22:21:16.561Z,8.95
2022-11-24T22:23:43.404Z,8.98
2022-11-24T22:26:17.128Z,9.00
2022-11-24T22:28:44.034Z,8.90
2022-11-24T22:31:15.841Z,8.89
2022-11-24T22:33:43.761Z,8.89
2022-11-24T22:36:14.071Z,8.89
2022-11-24T22:38:41.571Z,8.96
2022-11-24T22:41:10.742Z,8.98
2022-11-24T22:43:38.549Z,9.03
2022-11-24T22:46:06.611Z,9.05
2022-11-24T22:48:33.602Z,8.98
2022-11-24T22:51:18.067Z,8.98
2022-11-24T22:53:49.004Z,9.00
2022-11-24T22:56:16.640Z,8.92
2022-11-24T22:58:43.280Z,8.86
2022-11-24T23:01:15.077Z,8.85
2022-11-24T23:03:42.205Z,8.94
2022-11-24T23:06:13.742Z,9.01
2022-11-24T23:08:40.644Z,9.03
2022-11-24T23:11:09.818Z,9.08
2022-11-24T23:13:36.603Z,9.07
2022-11-24T23:16:05.238Z,9.01
2022-11-24T23:18:32.197Z,8.90
2022-11-24T23:21:19.300Z,8.89
2022-11-24T23:23:47.152Z,8.96
2022-11-24T23:26:16.756Z,8.99
2022-11-24T23:28:43.270Z,8.97
2022-11-24T23:31:16.148Z,8.95
2022-11-24T23:33:42.891Z,8.90
2022-11-24T23:36:12.523Z,8.95
2022-11-24T23:38:39.928Z,8.96
2022-11-24T23:41:10.713Z,9.01
2022-11-24T23:43:39.080Z,8.87
2022-11-24T23:46:17.561Z,8.80
2022-11-24T23:48:44.501Z,8.86
2022-11-24T23:51:19.110Z,8.90
2022-11-24T23:53:46.140Z,8.83
2022-11-24T23:56:20.880Z,8.80
2022-11-24T23:58:47.344Z,8.79
